Agate Beach, Washington
Current Conditions -  °F | °C
As of 4:39 AM on Monday 20 Oct 2014 (Local Time) from KCLM Reporting Station
Light Rain Light Rain  
Wind Chill: 56°   Ceiling: 1400
Heat Index: 56°   Visibility: 10mi
Dew Point: 54°   Wind: 5mph
Humidity: 93%   Direction: 130°SE
Pressure: 29.65"   Gusts: NA
Location:  48.1359°N, 123.734°W
Report Text: KCLM 201139Z AUTO 13004KT 10SM -RA BKN014 OVC050 13/12 A2965 RMK AO2 RAE1056B12 P0000 T01330122 TSNO $
Loading
Personal Weather Stations






























Interactive Weather Map
Tropical Storm Tracking
New forecast layout! Learn more

10-Day Weather Forecast

Advertisements
Track Severe Weather on mobile